Garfield County Regional Airport
KRIL : now visible

Airfield :











YOU CAN JOIN US ON...

 
LOGIN :

Register | Disclaimer

   EN    FR    IT 

 









Legend :    VFR   Marginal VFR   IFR   Intensive IFR   Very Intensive IFR
Visi :
Ceiling :
>= 8 km
>= 3000ft
5 to 8 km
1000 to 3000 ft
1500m to 5 km
500 to 1000 ft
800 to 1500m
200 to 500 ft
< 800m
< 200 ft
Symbols :   Thunderstorms  Fog  Heavy snow  Heavy precipitations  Wind > 20 kt






- Airport Elevation : 5548 ft


KRIL - Garfield County Regional

CURRENT METAR :
  • 121753Z AUTO 27004KT 10SM OVC070 M02/M04 A3026 RMK AO2 SNE04 SLP272 P0000 60000 T10171039 11017 21050 58004

EXPIRED METARs :
  • 121703Z AUTO 01003KT 6SM -SN BR SCT026 OVC085 M02/M04 A3027 RMK AO2 P0000 T10171039
  • 121653Z AUTO 08003KT 4SM -SN BR BKN024 BKN031 OVC085 M02/M04 A3026 RMK AO2 SLP271 P0000 T10221039
  • 121646Z AUTO 05003KT 2 1/2SM -SN BR BKN024 OVC031 M02/M04 A3027 RMK AO2 P0000 T10221039
  • 121621Z AUTO 06003KT 1 1/4SM -SN BR OVC029 M03/M04 A3027 RMK AO2 P0000 T10281044
  • 121600Z AUTO 00000KT 2SM -SN BR BKN025 OVC042 M02/M04 A3028 RMK AO2 P0000 T10221044
  • 121534Z AUTO 00000KT 3/4SM -SN BR OVC022 M03/M04 A3028 RMK AO2 P0000 T10281044

TAF KRIL
Valid from the 12 at 18:00 until the 13 at 18:00 UTC


121740Z 1218/1318 VRB03KT P6SM VCSH SCT025 OVC080
TEMPO 1218/1219 4SM -SHSN BR BKN025 OVC050
FM122000 VRB04KT P6SM FEW050 SCT100
FM130500 VRB04KT P6SM VCSH SCT035 BKN045
FM130600 24005KT P6SM VCSH SCT025 OVC040
FM131200 VRB03KT P6SM SCT020 BKN030



MET'MAP, your aeronautical weather chart ! - Copyright ORBIFLY December 2007 - Disclaimer

ORBIFLY MET'MAP TEAM :

Programming & Development : Alexandra Zaïnal
Concept & original design : Baudouin d'Aumeries
Assistance for programming : Marc-Olivier Méhu
Technical & hardware support : Manuel Goepfert

Contact : metmap@orbifly.com




SOURCES & CREDITS :

   NOAA       Earth
Advisory